Etusivu
METAR-TAF:

METAR-TAF

Lentoasemat :

Roscommon County - Blodgett Memorial Airport

Houghton Lake, Michigan, Yhdysvallat

Leveyspiiri: 44-21-04N, Pituuspiiri: 084-40-27W, korkeus merenpinnasta: 350 m

Tämänhetkinen sää

Tämä raportti tehtiin 1 tunti ja 9 minuuttia sitten, kello 23.53 UTC
Tuuli 8 kn etelästä/kaakosta
Lämpötila -8°C
Kosteus 73%
Ilmanpaine 1017 hPa
Näkyvyys: 16.1 km
Hajanaisia pilviä 6000 ft:n korkeudessa
Pilvistä 7000 ft:n korkeudessa

METAR: KHTL 132353Z AUTO 16008KT 10SM SCT060 OVC070 M08/M12 A3004 RMK AO2 SNB2254E45 SLP194 P0000 60002 T10831122 11072 21089 58006

Aika: 20:02 (01:02 UTC)


TAF: puuttuu

Säähavainnot ja -ennusteet yli 4000 lentoasemalta (METAR- ja TAF-raportit).

Käytössä olevat sääasemat on merkitty karttaan keltaisilla ja punaisilla pisteillä.

Aseta hiiri pisteen päälle nähdäksesi sääaseman nimen.

Klikkaa sitten nähdäksesi säähavainnot ja -ennusteet.

Kartan vaihtaminen: klikkaa mustalla rastilla varustettuja vihreitä pisteitä, niin voit zoomata sisään; viivalla varustettua vihreää pistettä, niin voit zoomata ulos tai vihreitä nuolia, niin pääset viereisille kartoille.


METAR-TAF: